Time;durP1;ratioP1;P1;durP2;ratioP2;P2;SDS_P1;SDS_P2;PMS_P1;PMS_P2;Temp;Humidity;BMP_temperature;BMP_pressure;BME280_temperature;BME280_humidity;BME280_pressure;Samples;Min_cycle;Max_cycle;Signal;HPM_P1;HPM_P2
2022/06/25 00:01:38;;;;;;;1.40;1.10;;;;;;;17.11;80.38;98206.72;4119028;28;20246;-54
2022/06/25 00:03:41;;;;;;;1.00;0.93;;;;;;;17.08;80.69;98216.41;4117753;28;20210;-54
2022/06/25 00:05:42;;;;;;;1.20;0.80;;;;;;;17.02;80.34;98220.38;4107932;28;20687;-54
2022/06/25 00:07:44;;;;;;;2.40;0.85;;;;;;;17.01;80.66;98226.19;4103243;28;20322;-53
2022/06/25 00:09:46;;;;;;;2.75;0.98;;;;;;;16.94;80.99;98225.75;4119527;28;20305;-54
2022/06/25 00:14:11;;;;;;;1.00;1.00;;;;;;;16.74;82.58;98223.25;4121199;28;20305;-53
2022/06/25 00:16:12;;;;;;;1.27;0.95;;;;;;;16.81;82.16;98234.78;4121926;28;20211;-53
2022/06/25 00:18:15;;;;;;;1.17;1.08;;;;;;;16.83;82.10;98229.75;4122774;28;20234;-55
2022/06/25 00:20:16;;;;;;;2.70;1.00;;;;;;;16.91;81.79;98229.13;4120513;28;20219;-56
2022/06/25 00:22:18;;;;;;;2.97;1.35;;;;;;;16.87;82.21;98222.53;4121018;28;20194;-56
2022/06/25 00:24:20;;;;;;;3.33;1.00;;;;;;;16.87;82.14;98222.53;4122646;28;20293;-57
2022/06/25 00:26:21;;;;;;;1.10;1.00;;;;;;;16.86;81.93;98223.66;4123735;28;20324;-56
2022/06/25 00:28:23;;;;;;;1.95;1.00;;;;;;;16.88;81.97;98215.88;4103581;28;20317;-54
2022/06/25 00:30:25;;;;;;;1.52;0.90;;;;;;;16.92;81.76;98227.16;4120424;28;20230;-55
2022/06/25 00:32:26;;;;;;;1.30;0.93;;;;;;;16.87;81.63;98230.81;4123769;28;20228;-55
2022/06/25 00:34:28;;;;;;;1.15;0.80;;;;;;;16.85;81.48;98230.31;4120753;28;20297;-55
2022/06/25 00:36:30;;;;;;;1.15;1.05;;;;;;;16.83;81.58;98232.53;4119852;28;20206;-55
2022/06/25 00:38:31;;;;;;;2.42;1.15;;;;;;;16.83;81.41;98232.53;4123211;28;20257;-55
2022/06/25 00:40:33;;;;;;;1.38;1.27;;;;;;;16.81;81.36;98233.94;4121926;28;20584;-55
2022/06/25 00:42:34;;;;;;;3.30;1.08;;;;;;;16.82;81.34;98236.41;4108256;28;20289;-54
2022/06/25 00:44:36;;;;;;;3.70;1.20;;;;;;;16.84;81.38;98234.16;4120581;28;20750;-55
2022/06/25 00:46:38;;;;;;;1.17;1.08;;;;;;;16.81;81.41;98234.78;4121449;28;20224;-54
2022/06/25 00:48:39;;;;;;;1.08;0.95;;;;;;;16.79;81.17;98248.06;4122130;28;20265;-55
2022/06/25 00:50:41;;;;;;;3.60;1.23;;;;;;;16.77;81.10;98236.47;4123235;28;20202;-55
2022/06/25 00:52:44;;;;;;;2.33;0.90;;;;;;;16.79;81.15;98241.72;4121182;28;20657;-54
2022/06/25 00:54:49;;;;;;;2.88;1.10;;;;;;;16.75;80.89;98247.00;4120609;28;20211;-54
2022/06/25 00:56:51;;;;;;;2.75;1.00;;;;;;;16.73;80.81;98238.19;4121537;28;20234;-54
2022/06/25 00:58:54;;;;;;;1.23;0.88;;;;;;;16.72;80.71;98238.50;4120634;28;20226;-54
2022/06/25 01:00:55;;;;;;;1.15;1.05;;;;;;;16.70;80.71;98238.78;4105370;28;20209;-54
2022/06/25 01:02:57;;;;;;;1.17;1.05;;;;;;;16.67;80.77;98236.63;4098909;28;21036;-54
2022/06/25 01:04:59;;;;;;;1.08;1.00;;;;;;;16.67;80.63;98239.38;4122090;28;20209;-53
2022/06/25 01:07:00;;;;;;;1.20;1.05;;;;;;;16.63;80.57;98237.50;4119080;28;21570;-54
2022/06/25 01:09:02;;;;;;;1.15;1.08;;;;;;;16.59;80.50;98240.03;4121603;28;20237;-54
2022/06/25 01:11:04;;;;;;;1.20;1.10;;;;;;;16.57;80.54;98233.97;4139707;28;20834;-53
2022/06/25 01:13:05;;;;;;;1.58;1.10;;;;;;;16.55;80.58;98241.75;4125188;28;20309;-54
2022/06/25 01:15:13;;;;;;;1.40;1.23;;;;;;;16.54;80.48;98240.09;4142184;28;20209;-54
2022/06/25 01:17:14;;;;;;;2.03;1.30;;;;;;;16.48;80.55;98244.03;4134292;28;20212;-54
2022/06/25 01:19:16;;;;;;;1.48;1.23;;;;;;;16.45;80.67;98247.41;4137982;28;20317;-55
2022/06/25 01:21:17;;;;;;;0.95;0.95;;;;;;;16.43;80.71;98255.13;4137387;28;20214;-54
2022/06/25 01:23:19;;;;;;;2.78;1.15;;;;;;;16.40;80.70;98252.13;4134626;28;20285;-53
2022/06/25 01:25:21;;;;;;;1.45;1.35;;;;;;;16.38;80.70;98257.97;4137010;28;20233;-53
2022/06/25 01:27:23;;;;;;;1.98;1.20;;;;;;;16.38;80.58;98251.63;4138556;28;20228;-54
2022/06/25 01:29:25;;;;;;;2.50;1.13;;;;;;;16.36;80.48;98259.34;4135393;28;20339;-53
2022/06/25 01:31:27;;;;;;;1.70;1.10;;;;;;;16.33;80.57;98252.47;4134124;28;20729;-53
2022/06/25 01:33:29;;;;;;;1.05;0.93;;;;;;;16.29;80.60;98251.41;4133625;28;20223;-53
2022/06/25 01:35:31;;;;;;;3.33;1.42;;;;;;;16.26;80.79;98252.00;4134189;28;20292;-55
2022/06/25 01:37:32;;;;;;;2.13;1.60;;;;;;;16.23;80.85;98252.56;4136952;28;20300;-54
2022/06/25 01:39:34;;;;;;;2.55;1.40;;;;;;;16.18;80.80;98258.16;4137953;28;20202;-54
2022/06/25 01:41:36;;;;;;;1.92;1.15;;;;;;;16.18;80.93;98263.69;4137607;28;20233;-55
2022/06/25 01:43:39;;;;;;;2.88;1.00;;;;;;;16.21;80.84;98267.78;4138953;28;20232;-54
2022/06/25 01:45:41;;;;;;;3.00;1.17;;;;;;;16.20;80.95;98260.63;4136165;28;20206;-54
2022/06/25 01:47:43;;;;;;;5.93;1.40;;;;;;;16.14;81.13;98262.63;4136247;28;20625;-55
2022/06/25 01:49:45;;;;;;;1.13;1.02;;;;;;;16.12;81.13;98264.03;4139732;28;20212;-54
2022/06/25 01:51:46;;;;;;;1.00;1.00;;;;;;;16.13;81.06;98262.91;4140558;28;20252;-54
2022/06/25 01:53:48;;;;;;;1.58;1.48;;;;;;;16.05;81.18;98264.38;4139916;28;20229;-54
2022/06/25 01:55:49;;;;;;;1.30;1.20;;;;;;;16.06;81.42;98268.78;4135912;28;20619;-55
2022/06/25 01:57:51;;;;;;;1.75;1.38;;;;;;;16.12;81.31;98270.38;4139388;28;20257;-54
2022/06/25 01:59:53;;;;;;;0.90;0.90;;;;;;;16.10;81.24;98261.53;4111051;28;20214;-53
2022/06/25 02:01:54;;;;;;;1.40;1.30;;;;;;;16.14;81.21;98268.13;4137303;28;20201;-55
2022/06/25 02:03:56;;;;;;;2.15;1.50;;;;;;;16.13;81.63;98263.75;4138634;28;20201;-54
2022/06/25 02:05:58;;;;;;;5.05;1.45;;;;;;;16.12;81.59;98264.84;4138487;28;20261;-54
2022/06/25 02:07:59;;;;;;;2.10;1.40;;;;;;;16.12;81.49;98264.84;4136129;28;20359;-54
2022/06/25 02:10:02;;;;;;;6.47;1.20;;;;;;;16.11;81.30;98268.75;4135984;28;20210;-55
2022/06/25 02:12:05;;;;;;;1.00;0.90;;;;;;;16.13;81.24;98266.50;4131618;28;20700;-55
2022/06/25 02:14:06;;;;;;;2.25;1.20;;;;;;;16.09;81.23;98265.41;4135974;28;20225;-54
2022/06/25 02:16:08;;;;;;;2.03;1.20;;;;;;;16.10;81.27;98272.59;4133749;28;20267;-55
2022/06/25 02:18:10;;;;;;;1.30;1.20;;;;;;;16.09;81.04;98270.13;4136268;28;20225;-55
2022/06/25 02:20:12;;;;;;;1.45;1.35;;;;;;;16.12;80.95;98270.38;4133255;28;20209;-55
2022/06/25 02:22:14;;;;;;;2.60;1.30;;;;;;;16.09;81.32;98262.66;4134121;28;20686;-55
2022/06/25 02:24:16;;;;;;;1.30;1.20;;;;;;;16.09;81.37;98270.94;4136589;28;20228;-55
2022/06/25 02:26:18;;;;;;;1.83;1.30;;;;;;;16.09;81.51;98270.94;4134749;28;21233;-55
2022/06/25 02:28:19;;;;;;;1.75;1.65;;;;;;;16.09;81.46;98265.41;4135251;28;20248;-55
2022/06/25 02:30:21;;;;;;;3.03;1.25;;;;;;;16.08;81.66;98263.78;4135294;28;20213;-54
2022/06/25 02:32:23;;;;;;;1.05;1.05;;;;;;;16.08;81.71;98271.22;4133158;28;20334;-55
2022/06/25 02:34:24;;;;;;;1.42;1.20;;;;;;;16.09;81.64;98270.13;4136557;28;20205;-55
2022/06/25 02:36:26;;;;;;;1.33;1.20;;;;;;;16.07;81.59;98275.94;4117558;28;20225;-55
2022/06/25 02:38:28;;;;;;;1.55;1.45;;;;;;;16.06;81.68;98270.69;4135246;28;20225;-55
2022/06/25 02:40:29;;;;;;;3.53;1.20;;;;;;;16.05;81.52;98274.59;4135438;28;20240;-55
2022/06/25 02:42:35;;;;;;;1.40;1.30;;;;;;;16.01;81.22;98279.88;4135271;28;20666;-54
2022/06/25 02:44:36;;;;;;;1.90;1.40;;;;;;;15.98;81.26;98277.69;4133610;28;20292;-54
2022/06/25 02:46:38;;;;;;;1.33;1.23;;;;;;;15.95;81.23;98275.50;4135301;28;20787;-54
2022/06/25 02:48:40;;;;;;;1.63;1.20;;;;;;;15.93;81.24;98283.25;4134428;28;20352;-54
2022/06/25 02:50:42;;;;;;;1.73;1.63;;;;;;;15.88;81.31;98279.69;4132610;28;20542;-54
2022/06/25 02:52:43;;;;;;;1.63;1.38;;;;;;;15.86;81.51;98268.97;4134898;28;20276;-54
2022/06/25 02:54:45;;;;;;;1.58;1.30;;;;;;;15.73;82.79;98288.97;4119594;28;20211;-54
2022/06/25 02:59:07;;;;;;;1.60;1.50;;;;;;;15.74;82.28;98290.59;4138016;28;20305;-55
2022/06/25 03:01:09;;;;;;;1.63;1.30;;;;;;;15.73;82.03;98288.97;4134912;28;20312;-54
2022/06/25 03:03:10;;;;;;;1.83;1.40;;;;;;;15.71;81.60;98295.88;4136551;28;20198;-54
2022/06/25 03:05:12;;;;;;;1.92;1.40;;;;;;;15.67;81.57;98290.09;4135911;28;20332;-54
2022/06/25 03:07:13;;;;;;;3.15;1.20;;;;;;;15.64;81.30;98290.66;4136374;28;20293;-54
2022/06/25 03:09:15;;;;;;;5.50;1.30;;;;;;;15.61;81.34;98285.72;4134967;28;20706;-54
2022/06/25 03:11:17;;;;;;;1.63;1.20;;;;;;;15.59;81.39;98287.97;4136224;28;20296;-54
2022/06/25 03:13:19;;;;;;;3.63;1.48;;;;;;;15.56;81.39;98294.03;4134779;28;20312;-54
2022/06/25 03:15:21;;;;;;;1.15;1.05;;;;;;;15.52;81.51;98301.25;4119319;28;20699;-54
2022/06/25 03:17:22;;;;;;;2.22;1.13;;;;;;;15.52;81.77;98298.50;4134868;28;20220;-54
2022/06/25 03:19:24;;;;;;;4.47;1.40;;;;;;;15.54;81.78;98299.03;4135286;28;20305;-54
2022/06/25 03:21:25;;;;;;;1.70;1.15;;;;;;;15.65;81.82;98286.81;4135144;28;20219;-54
2022/06/25 03:23:27;;;;;;;4.45;1.20;;;;;;;15.58;82.21;98296.53;4131723;28;20239;-54
2022/06/25 03:25:29;;;;;;;1.60;1.20;;;;;;;15.60;82.10;98295.13;4131759;28;20590;-54
2022/06/25 03:27:31;;;;;;;1.67;1.25;;;;;;;15.59;82.22;98300.91;4133963;28;20224;-55
2022/06/25 03:29:33;;;;;;;1.40;1.30;;;;;;;15.55;82.44;98303.44;4131404;28;20198;-54
2022/06/25 03:31:35;;;;;;;2.05;1.23;;;;;;;15.72;81.94;98303.88;4135284;28;20679;-54
2022/06/25 03:33:36;;;;;;;2.83;1.25;;;;;;;15.58;82.11;98302.88;4134431;28;20593;-54
2022/06/25 03:35:38;;;;;;;1.35;1.25;;;;;;;15.46;82.98;98310.69;4136479;28;20337;-54
2022/06/25 03:37:39;;;;;;;2.78;1.35;;;;;;;15.42;82.79;98306.03;4137033;28;20610;-55
2022/06/25 03:39:41;;;;;;;1.48;1.42;;;;;;;15.37;82.72;98306.84;4122190;28;20621;-55
2022/06/25 03:41:42;;;;;;;1.60;1.50;;;;;;;15.40;83.00;98311.81;4132793;28;20212;-54
2022/06/25 03:43:44;;;;;;;1.83;1.73;;;;;;;15.38;82.67;98311.28;4132346;28;20202;-55
2022/06/25 03:45:45;;;;;;;1.33;1.20;;;;;;;15.37;82.22;98317.88;4136327;28;20698;-54
2022/06/25 03:47:50;;;;;;;3.95;1.67;;;;;;;15.36;82.32;98313.50;4136339;28;20230;-54
2022/06/25 03:49:53;;;;;;;1.50;1.40;;;;;;;15.37;82.47;98323.41;4138090;28;20288;-55
2022/06/25 03:51:55;;;;;;;2.20;1.48;;;;;;;15.38;82.37;98327.84;4138784;28;20296;-55
2022/06/25 03:53:57;;;;;;;1.60;1.50;;;;;;;15.39;82.30;98323.13;4136081;28;20629;-55
2022/06/25 03:55:59;;;;;;;2.03;1.40;;;;;;;15.34;82.72;98324.00;4138813;28;20347;-54
2022/06/25 03:58:00;;;;;;;1.58;1.27;;;;;;;15.32;82.74;98326.22;4119969;28;20272;-55
2022/06/25 04:00:03;;;;;;;1.65;1.55;;;;;;;15.22;83.61;98320.72;4136903;28;20757;-55
2022/06/25 04:02:05;;;;;;;3.08;1.40;;;;;;;15.25;83.34;98320.16;4138247;28;20308;-55
2022/06/25 04:04:07;;;;;;;5.72;1.40;;;;;;;15.27;83.21;98320.69;4138868;28;20194;-55
2022/06/25 04:06:09;;;;;;;1.70;1.60;;;;;;;15.29;83.06;98326.72;4137972;28;20233;-55
2022/06/25 04:08:10;;;;;;;2.63;1.50;;;;;;;15.33;82.92;98319.59;4122132;28;20322;-55
2022/06/25 04:10:12;;;;;;;2.17;1.20;;;;;;;15.33;82.77;98322.34;4138257;28;20206;-54
2022/06/25 04:12:13;;;;;;;2.10;1.50;;;;;;;15.37;82.50;98328.91;4138744;28;20504;-54
2022/06/25 04:14:15;;;;;;;1.75;1.65;;;;;;;15.37;82.55;98334.44;4137311;28;20306;-56
2022/06/25 04:16:17;;;;;;;1.58;1.48;;;;;;;15.39;82.54;98326.72;4137176;28;20238;-54
2022/06/25 04:18:19;;;;;;;2.22;1.20;;;;;;;15.41;82.37;98335.53;4137627;28;21360;-55
2022/06/25 04:20:20;;;;;;;2.95;1.40;;;;;;;15.41;82.32;98341.03;4127651;28;20583;-54
2022/06/25 04:22:22;;;;;;;4.63;2.08;;;;;;;15.46;82.31;98337.41;4135876;28;20664;-54
2022/06/25 04:24:24;;;;;;;2.72;1.45;;;;;;;15.45;82.47;98342.13;4136555;28;20202;-55
2022/06/25 04:26:25;;;;;;;3.13;1.30;;;;;;;15.46;82.83;98335.50;4138914;28;20698;-56
2022/06/25 04:30:47;;;;;;;2.50;1.63;;;;;;;15.49;83.17;98337.66;4137369;28;20197;-57
2022/06/25 04:32:48;;;;;;;2.45;2.20;;;;;;;15.51;83.07;98340.16;4139250;28;20205;-56
2022/06/25 04:34:50;;;;;;;1.55;1.45;;;;;;;15.54;82.92;98332.13;4137265;28;20217;-55
2022/06/25 04:36:52;;;;;;;2.97;1.85;;;;;;;15.58;82.90;98335.97;4136144;28;20332;-57
2022/06/25 04:38:53;;;;;;;3.25;2.00;;;;;;;15.61;83.14;98327.13;4138974;28;20235;-55
2022/06/25 04:40:55;;;;;;;3.60;1.80;;;;;;;15.64;83.01;98329.28;4139316;28;20862;-54
2022/06/25 04:42:56;;;;;;;4.75;2.20;;;;;;;15.67;82.89;98323.22;4137932;28;20297;-56
2022/06/25 04:44:58;;;;;;;1.52;1.42;;;;;;;15.70;82.94;98322.63;4138376;28;20210;-55
2022/06/25 04:47:00;;;;;;;1.65;1.52;;;;;;;15.71;83.02;98324.25;4138701;28;20327;-55
2022/06/25 04:49:01;;;;;;;2.80;1.38;;;;;;;15.75;82.91;98330.88;4141333;28;20255;-58
2022/06/25 04:51:03;;;;;;;4.63;2.00;;;;;;;15.78;82.83;98329.47;4140664;28;20665;-55
2022/06/25 04:53:05;;;;;;;1.73;1.63;;;;;;;15.81;82.82;98335.25;4137974;28;20247;-55
2022/06/25 04:55:06;;;;;;;1.92;1.63;;;;;;;15.84;82.78;98345.69;4137705;28;20282;-56
2022/06/25 04:57:08;;;;;;;1.60;1.50;;;;;;;15.86;82.86;98340.72;4140034;28;20300;-55
2022/06/25 04:59:10;;;;;;;5.88;1.73;;;;;;;15.87;83.01;98349.81;4138858;28;20787;-55
2022/06/25 05:01:11;;;;;;;2.17;1.80;;;;;;;15.90;82.88;98355.56;4136933;28;20209;-55
2022/06/25 05:03:13;;;;;;;1.65;1.55;;;;;;;15.92;83.26;98353.38;4137145;28;20232;-56
2022/06/25 05:05:14;;;;;;;1.48;1.38;;;;;;;16.00;83.08;98354.66;4137753;28;20289;-55
2022/06/25 05:07:16;;;;;;;2.35;2.15;;;;;;;15.96;85.29;98359.94;4136183;28;20229;-56
2022/06/25 05:09:18;;;;;;;4.45;2.30;;;;;;;16.00;84.92;98355.50;4138572;28;20313;-55
2022/06/25 05:11:19;;;;;;;2.40;2.20;;;;;;;15.95;85.88;98363.81;4138991;28;20293;-54
2022/06/25 05:13:21;;;;;;;4.22;2.40;;;;;;;15.94;86.57;98362.19;4137631;28;20209;-55
2022/06/25 05:15:22;;;;;;;3.08;2.88;;;;;;;15.98;86.47;98368.78;4135177;28;20332;-56
2022/06/25 05:17:24;;;;;;;4.05;2.55;;;;;;;15.95;87.38;98363.81;4139612;28;20577;-56
2022/06/25 05:19:26;;;;;;;1.92;1.83;;;;;;;16.04;86.86;98366.78;4134173;28;20885;-55
2022/06/25 05:21:27;;;;;;;2.35;2.20;;;;;;;16.19;86.51;98363.91;4133349;28;20312;-56
2022/06/25 05:23:29;;;;;;;2.40;2.30;;;;;;;16.12;86.78;98368.94;4135063;28;20213;-56
2022/06/25 05:25:30;;;;;;;2.05;1.95;;;;;;;16.18;86.75;98368.63;4138195;28;20574;-55
2022/06/25 05:27:32;;;;;;;2.22;2.00;;;;;;;16.25;86.96;98369.09;4138253;28;20289;-55
2022/06/25 05:29:34;;;;;;;2.53;2.33;;;;;;;16.39;86.58;98370.09;4136156;28;20214;-54
2022/06/25 05:31:35;;;;;;;2.83;1.85;;;;;;;16.55;86.71;98368.03;4136505;28;20923;-55
2022/06/25 05:33:37;;;;;;;3.17;2.53;;;;;;;16.56;86.43;98364.94;4133349;28;20321;-57
2022/06/25 05:35:39;;;;;;;3.58;2.90;;;;;;;16.58;86.65;98368.25;4140280;28;20252;-55
2022/06/25 05:37:41;;;;;;;4.00;3.30;;;;;;;16.80;85.89;98368.56;4134433;28;20613;-55
2022/06/25 05:39:42;;;;;;;3.35;2.70;;;;;;;16.58;85.60;98373.78;4135066;28;20673;-56
2022/06/25 05:41:44;;;;;;;3.08;2.88;;;;;;;16.78;86.19;98373.56;4135739;28;20206;-56
2022/06/25 05:43:45;;;;;;;3.20;2.67;;;;;;;16.92;85.04;98374.50;4135262;28;20269;-58
2022/06/25 05:45:47;;;;;;;2.15;2.05;;;;;;;17.02;84.58;98363.31;4137682;28;20297;-55
2022/06/25 05:47:49;;;;;;;3.20;2.70;;;;;;;17.03;84.34;98370.47;4138209;28;20261;-55
2022/06/25 05:49:50;;;;;;;3.88;1.92;;;;;;;17.24;83.90;98371.88;4135705;28;20295;-59
2022/06/25 05:51:52;;;;;;;2.38;1.95;;;;;;;17.40;83.30;98365.06;4137339;28;20676;-56
2022/06/25 05:53:53;;;;;;;3.05;2.80;;;;;;;17.63;83.87;98369.72;4137143;28;20343;-57
2022/06/25 05:55:55;;;;;;;1.50;1.40;;;;;;;17.72;82.54;98370.69;4139196;28;20292;-57
2022/06/25 05:57:56;;;;;;;1.70;1.60;;;;;;;17.80;81.75;98370.03;4135974;28;20237;-57
2022/06/25 05:59:58;;;;;;;4.22;2.08;;;;;;;17.98;81.52;98371.97;4134928;28;20216;-55
2022/06/25 06:02:00;;;;;;;2.75;1.40;;;;;;;17.99;80.74;98374.41;4135697;28;20207;-56
2022/06/25 06:04:02;;;;;;;1.52;1.40;;;;;;;18.20;81.37;98372.97;4135834;28;20586;-57
2022/06/25 06:06:03;;;;;;;9.27;2.08;;;;;;;18.42;80.66;98372.34;4134232;28;20206;-55
2022/06/25 06:08:06;;;;;;;6.03;1.48;;;;;;;18.52;79.57;98372.16;4133649;28;20283;-55
2022/06/25 06:10:08;;;;;;;3.08;1.40;;;;;;;18.56;79.40;98373.19;4136781;28;20214;-54
2022/06/25 06:12:10;;;;;;;2.42;1.48;;;;;;;18.76;79.07;98378.34;4138497;28;20216;-55
2022/06/25 06:14:11;;;;;;;7.63;1.90;;;;;;;18.84;78.85;98381.25;4136567;28;20221;-56
2022/06/25 06:20:18;;;;;;;3.95;1.60;;;;;;;18.95;79.74;98387.41;4080382;28;20222;-82
2022/06/25 06:22:38;;;;;;;2.67;1.60;;;;;;;19.00;77.91;98382.63;4081859;29;20945;-82
2022/06/25 06:27:46;;;;;;;1.92;1.00;;;;;;;18.68;77.90;98390.16;4005942;29;20238;-82
2022/06/25 06:31:01;;;;;;;1.17;1.10;;;;;;;18.61;78.28;98389.72;3984030;29;20981;-82
2022/06/25 06:33:08;;;;;;;2.92;1.20;;;;;;;18.80;78.37;98384.94;3990951;29;20227;-83
2022/06/25 06:35:31;;;;;;;1.30;1.17;;;;;;;18.81;78.64;98390.19;3943989;30;20269;-84
2022/06/25 06:37:55;;;;;;;1.70;1.40;;;;;;;18.69;77.73;98389.03;3934729;30;20259;-83
2022/06/25 06:40:17;;;;;;;1.42;1.20;;;;;;;18.53;78.36;98387.66;3944090;30;20860;-84
2022/06/25 06:43:09;;;;;;;1.30;1.20;;;;;;;18.76;77.75;98392.22;3945398;30;20289;-84
2022/06/25 06:45:30;;;;;;;1.35;1.20;;;;;;;18.75;77.59;98388.63;3980284;29;20306;-83
2022/06/25 06:47:56;;;;;;;1.42;1.30;;;;;;;18.61;77.95;98395.28;3990878;29;20208;-83
2022/06/25 06:50:00;;;;;;;1.58;1.10;;;;;;;18.96;77.96;98394.59;3989658;29;20226;-83
2022/06/25 06:52:16;;;;;;;3.95;1.63;;;;;;;19.40;77.76;98392.09;3983505;29;20306;-83
2022/06/25 06:54:34;;;;;;;1.98;1.20;;;;;;;19.43;77.07;98400.59;4040205;29;20245;-83
2022/06/25 06:56:39;;;;;;;2.40;1.15;;;;;;;19.19;75.68;98396.38;4047221;29;20264;-84
2022/06/25 06:58:59;;;;;;;3.72;1.15;;;;;;;19.23;76.49;98395.47;4016152;29;20211;-83
2022/06/25 07:01:10;;;;;;;1.20;1.10;;;;;;;19.26;76.42;98394.03;4042121;29;20746;-83
2022/06/25 07:03:12;;;;;;;2.47;1.10;;;;;;;19.18;76.90;98397.50;4043369;29;20222;-85
2022/06/25 07:05:34;;;;;;;3.70;1.20;;;;;;;19.01;76.14;98387.03;4058744;29;20268;-84
2022/06/25 07:07:47;;;;;;;1.52;1.17;;;;;;;18.94;76.69;98394.09;4046922;29;20221;-84
2022/06/25 07:09:52;;;;;;;0.90;0.90;;;;;;;18.79;77.57;98394.41;4061680;29;20850;-84
2022/06/25 07:11:59;;;;;;;1.23;1.20;;;;;;;19.13;76.84;98394.84;4064807;29;20279;-84
2022/06/25 07:14:19;;;;;;;;;;;;;;;;;;;;;
2022/06/25 07:16:34;;;;;;;1.10;1.00;;;;;;;19.21;76.62;98394.13;4076533;29;20214;-83
2022/06/25 07:18:38;;;;;;;2.28;1.05;;;;;;;19.37;77.15;98398.25;4074265;29;20240;-84
2022/06/25 07:20:40;;;;;;;1.30;1.15;;;;;;;19.36;75.87;98388.25;4061215;29;20233;-84
2022/06/25 07:23:00;;;;;;;2.35;1.67;;;;;;;19.56;76.87;98401.72;4071344;29;20216;-84
2022/06/25 07:25:13;;;;;;;2.42;1.90;;;;;;;19.63;76.27;98404.88;4062043;29;20599;-84
2022/06/25 07:27:14;;;;;;;1.80;1.40;;;;;;;19.35;74.83;98397.72;4060537;29;20227;-84
2022/06/25 07:29:16;;;;;;;2.50;1.40;;;;;;;19.34;75.42;98402.47;4065597;29;20204;-84
2022/06/25 07:31:36;;;;;;;;;;;;;;;;;;;;;
2022/06/25 07:33:38;;;;;;;2.17;1.30;;;;;;;19.48;75.23;98408.84;4060891;29;20208;-84
2022/06/25 07:35:40;;;;;;;2.88;1.63;;;;;;;19.90;74.72;98410.41;4067339;28;20901;-84
2022/06/25 07:37:46;;;;;;;1.83;1.30;;;;;;;19.90;74.19;98399.31;4128989;28;20210;-85
2022/06/25 07:40:03;;;;;;;1.67;1.10;;;;;;;20.06;74.04;98393.06;4115505;28;20285;-85
2022/06/25 07:42:11;;;;;;;2.15;1.13;;;;;;;20.05;73.60;98390.59;4112168;28;20210;-85
2022/06/25 07:44:21;;;;;;;1.63;1.38;;;;;;;19.86;73.53;98389.94;4093710;28;20203;-84
2022/06/25 07:46:24;;;;;;;1.33;0.90;;;;;;;19.55;74.08;98391.75;4128361;28;20201;-85
2022/06/25 07:48:26;;;;;;;4.78;1.58;;;;;;;19.62;74.02;98381.03;4132136;28;20208;-85
2022/06/25 07:53:09;;;;;;;2.78;1.00;;;;;;;19.65;74.08;98380.44;4106284;28;20220;-84
2022/06/25 07:55:33;;;;;;;2.17;1.02;;;;;;;19.29;74.60;98376.75;4106468;28;20330;-84
2022/06/25 07:57:38;;;;;;;1.17;1.05;;;;;;;19.42;74.13;98382.31;4110364;28;20653;-84
2022/06/25 07:59:42;;;;;;;1.00;1.00;;;;;;;19.68;73.86;98386.19;4128438;28;20209;-84
2022/06/25 08:01:49;;;;;;;1.73;1.52;;;;;;;20.20;74.33;98379.16;4096420;28;20227;-84
2022/06/25 08:03:59;;;;;;;1.42;1.20;;;;;;;20.39;71.91;98385.34;4119166;28;20635;-84
2022/06/25 08:06:24;;;;;;;2.70;1.40;;;;;;;20.66;70.46;98385.19;4109596;28;20302;-84
2022/06/25 08:08:39;;;;;;;1.92;1.20;;;;;;;20.78;71.91;98380.66;4121206;28;20210;-85
2022/06/25 08:11:10;;;;;;;1.10;1.00;;;;;;;20.74;70.14;98379.69;4108435;28;21026;-84
2022/06/25 08:13:35;;;;;;;1.50;0.90;;;;;;;21.09;69.88;98370.38;4124932;28;20210;-84
2022/06/25 08:15:49;;;;;;;5.05;1.25;;;;;;;21.46;69.76;98374.59;4118929;28;20240;-86
2022/06/25 08:18:23;;;;;;;2.78;1.17;;;;;;;21.26;68.83;98366.84;4107340;28;20232;-85
2022/06/25 08:20:48;;;;;;;5.07;1.33;;;;;;;21.24;70.17;98369.13;4109436;28;20297;-85
2022/06/25 08:23:00;;;;;;;1.85;1.23;;;;;;;21.10;69.47;98369.22;4123323;28;20304;-83
2022/06/25 08:25:05;;;;;;;2.15;1.08;;;;;;;21.19;67.88;98363.69;4105942;28;20547;-85
2022/06/25 08:27:15;;;;;;;2.78;1.17;;;;;;;20.98;67.98;98365.44;4125819;28;20697;-85
2022/06/25 08:29:17;;;;;;;1.42;1.27;;;;;;;20.95;69.23;98360.50;4125002;28;20205;-84
2022/06/25 08:31:21;;;;;;;2.63;1.63;;;;;;;21.11;68.89;98359.75;4108461;28;20237;-85
2022/06/25 08:33:33;;;;;;;;;;;;;;;;;;;;;
2022/06/25 08:35:42;;;;;;;5.45;2.08;;;;;;;21.58;68.30;98358.09;4124280;28;20229;-85
2022/06/25 08:37:46;;;;;;;4.38;1.27;;;;;;;21.43;66.77;98362.13;4129507;28;20664;-85
2022/06/25 08:39:52;;;;;;;2.78;1.35;;;;;;;21.45;67.37;98359.03;4113550;28;20225;-85
2022/06/25 08:42:14;;;;;;;2.35;1.20;;;;;;;21.20;68.59;98360.59;4108879;28;20286;-84
2022/06/25 08:44:37;;;;;;;1.33;1.00;;;;;;;21.79;68.87;98361.91;4125612;28;20484;-85
2022/06/25 08:46:42;;;;;;;1.27;1.10;;;;;;;22.19;65.74;98355.03;4111484;28;20208;-84
2022/06/25 08:48:51;;;;;;;1.27;0.88;;;;;;;22.23;64.00;98354.03;4096330;28;20207;-85
2022/06/25 08:51:02;;;;;;;2.55;1.20;;;;;;;21.99;66.62;98352.91;4078435;29;20243;-85
2022/06/25 08:53:04;;;;;;;1.77;0.95;;;;;;;22.01;66.18;98351.44;4102665;28;20233;-86
2022/06/25 08:55:33;;;;;;;1.52;1.05;;;;;;;21.93;63.91;98354.22;4112825;28;20245;-84
2022/06/25 08:58:11;;;;;;;1.33;0.90;;;;;;;21.62;65.04;98351.53;4107590;28;20210;-87
2022/06/25 09:00:19;;;;;;;1.17;0.80;;;;;;;21.48;65.36;98352.81;4101169;28;20214;-86
2022/06/25 09:02:43;;;;;;;2.58;0.88;;;;;;;21.26;64.98;98350.97;4128367;28;20660;-85
2022/06/25 09:05:06;;;;;;;1.95;1.30;;;;;;;21.31;65.53;98347.22;4114620;28;20209;-86
2022/06/25 09:07:56;;;;;;;2.20;1.25;;;;;;;21.20;65.02;98340.28;4141875;28;20212;-85
2022/06/25 09:10:24;;;;;;;2.85;1.10;;;;;;;21.24;64.79;98338.50;4085774;29;20219;-85
2022/06/25 09:12:48;;;;;;;1.00;1.00;;;;;;;21.66;64.48;98348.91;4100056;28;20612;-86
2022/06/25 09:15:26;;;;;;;2.05;1.02;;;;;;;22.14;63.63;98332.88;4133463;28;20237;-86
2022/06/25 09:18:08;;;;;;;1.80;1.05;;;;;;;22.92;62.90;98332.41;4124169;28;20465;-85
2022/06/25 09:20:27;;;;;;;1.60;1.15;;;;;;;22.78;61.46;98329.03;4116864;28;20225;-85
2022/06/25 09:22:51;;;;;;;1.40;0.82;;;;;;;22.48;61.28;98332.88;4130517;28;20213;-85
2022/06/25 09:25:41;;;;;;;1.38;0.90;;;;;;;22.29;61.07;98329.59;4148401;28;20221;-85
2022/06/25 09:28:03;;;;;;;1.38;1.27;;;;;;;22.57;60.39;98325.31;4070194;28;20226;-85
2022/06/25 09:30:28;;;;;;;2.45;0.80;;;;;;;22.97;59.92;98326.66;4143142;28;20209;-86
2022/06/25 09:32:59;;;;;;;1.02;0.80;;;;;;;22.97;59.45;98326.66;4110387;28;20230;-86
2022/06/25 09:35:55;;;;;;;2.05;0.82;;;;;;;22.87;59.21;98332.59;4101648;28;20233;-85
2022/06/25 09:38:53;;;;;;;0.85;0.80;;;;;;;23.25;58.79;98330.66;4129625;28;20302;-86
2022/06/25 09:41:17;;;;;;;0.90;0.80;;;;;;;22.74;59.78;98325.25;4046691;29;20284;-87
2022/06/25 09:43:47;;;;;;;1.02;0.70;;;;;;;23.08;59.37;98331.53;4025574;29;20787;-85
2022/06/25 09:46:31;;;;;;;;;;;;;;;;;;;;;
2022/06/25 09:51:44;;;;;;;1.83;0.77;;;;;;;22.91;57.67;98325.19;4126644;23;20626;-56
2022/06/25 09:53:54;;;;;;;1.75;1.10;;;;;;;22.89;57.78;98319.09;4122368;28;20198;-55
2022/06/25 09:55:56;;;;;;;1.15;0.90;;;;;;;23.11;59.80;98324.44;4143419;28;20224;-55
2022/06/25 09:58:02;;;;;;;0.80;0.70;;;;;;;23.28;58.09;98325.22;4140009;28;20260;-56
2022/06/25 10:00:04;;;;;;;1.65;1.10;;;;;;;23.93;58.47;98320.66;4120879;28;20213;-54
2022/06/25 10:02:05;;;;;;;0.88;0.70;;;;;;;24.05;56.18;98326.34;4121608;28;20667;-53
2022/06/25 10:04:08;;;;;;;1.70;1.13;;;;;;;24.48;55.52;98326.75;4120282;28;20201;-53
2022/06/25 10:06:10;;;;;;;1.10;1.00;;;;;;;24.20;54.85;98322.91;4121653;28;20215;-54
2022/06/25 10:08:13;;;;;;;2.30;1.02;;;;;;;24.26;54.81;98323.53;4102739;28;20266;-54
2022/06/25 10:10:20;;;;;;;0.82;0.70;;;;;;;24.55;54.51;98327.00;4120266;28;20300;-54
2022/06/25 10:12:21;;;;;;;0.75;0.70;;;;;;;24.41;53.75;98315.28;4118031;28;20240;-54
2022/06/25 10:14:23;;;;;;;1.75;0.90;;;;;;;24.67;52.71;98312.25;4121353;28;20292;-53
2022/06/25 10:16:26;;;;;;;1.00;0.65;;;;;;;24.05;53.55;98315.16;4105690;28;20296;-53
2022/06/25 10:18:28;;;;;;;0.75;0.70;;;;;;;24.39;53.98;98317.63;4118646;28;20221;-55
2022/06/25 10:20:31;;;;;;;0.90;0.70;;;;;;;24.58;53.80;98317.94;4106270;28;20284;-55
2022/06/25 10:22:33;;;;;;;1.80;0.80;;;;;;;24.50;53.97;98316.03;4107880;28;20573;-53